Time;durP1;ratioP1;P1;durP2;ratioP2;P2;SDS_P1;SDS_P2;PMS_P1;PMS_P2;Temp;Humidity;BMP_temperature;BMP_pressure;BME280_temperature;BME280_humidity;BME280_pressure;Samples;Min_cycle;Max_cycle;Signal;HPM_P1;HPM_P2
2023/12/20 00:00:21;;;;;;;2.10;1.90;;;19.10;43.90;;;;;;4987842;28;20234;-76
2023/12/20 00:02:47;;;;;;;2.03;1.93;;;19.10;43.90;;;;;;4992110;28;20627;-76
2023/12/20 00:05:14;;;;;;;1.97;1.87;;;19.10;43.90;;;;;;4988527;28;20699;-76
2023/12/20 00:07:40;;;;;;;2.03;1.93;;;19.10;43.90;;;;;;4978519;28;20460;-76
2023/12/20 00:10:05;;;;;;;1.90;1.80;;;19.10;43.80;;;;;;4986562;28;20457;-77
2023/12/20 00:12:31;;;;;;;1.80;1.70;;;19.10;43.90;;;;;;4985925;28;20479;-76
2023/12/20 00:14:56;;;;;;;2.00;1.80;;;19.10;43.90;;;;;;4983160;28;20939;-77
2023/12/20 00:17:22;;;;;;;2.00;1.90;;;19.10;43.90;;;;;;4982898;28;22237;-77
2023/12/20 00:19:47;;;;;;;2.00;1.90;;;19.10;43.90;;;;;;4988353;28;21820;-77
2023/12/20 00:22:13;;;;;;;2.50;2.17;;;19.10;43.90;;;;;;4987285;28;20240;-76
2023/12/20 00:24:38;;;;;;;1.90;1.80;;;19.10;43.90;;;;;;4973057;28;20234;-77
2023/12/20 00:27:04;;;;;;;1.77;1.67;;;19.10;43.90;;;;;;4986519;28;20232;-77
2023/12/20 00:29:30;;;;;;;2.43;2.33;;;19.10;44.00;;;;;;4977683;28;20266;-77
2023/12/20 00:31:55;;;;;;;2.07;1.87;;;19.10;43.80;;;;;;4967715;28;20306;-77
2023/12/20 00:34:21;;;;;;;1.77;1.67;;;19.10;43.90;;;;;;4972402;28;20795;-77
2023/12/20 00:36:47;;;;;;;2.03;1.90;;;19.10;43.90;;;;;;4977897;28;20220;-77
2023/12/20 00:39:12;;;;;;;2.00;1.90;;;19.10;43.90;;;;;;4971144;28;20665;-77
2023/12/20 00:41:38;;;;;;;2.00;1.87;;;19.10;43.80;;;;;;4957540;28;20510;-77
2023/12/20 00:44:04;;;;;;;2.20;2.00;;;19.10;43.90;;;;;;4978649;28;20235;-77
2023/12/20 00:46:29;;;;;;;2.00;1.90;;;19.10;43.90;;;;;;4991736;28;20247;-76
2023/12/20 00:48:55;;;;;;;1.83;1.73;;;19.10;43.90;;;;;;4981697;28;20323;-77
2023/12/20 00:51:22;;;;;;;1.80;1.70;;;19.10;43.90;;;;;;4968558;28;20688;-77
2023/12/20 00:53:49;;;;;;;1.57;1.47;;;19.10;43.90;;;;;;4984805;28;20256;-77
2023/12/20 00:56:15;;;;;;;1.97;1.87;;;19.10;44.00;;;;;;4985733;28;20436;-77
2023/12/20 00:58:40;;;;;;;1.60;1.50;;;19.10;43.90;;;;;;4970884;28;20493;-77
2023/12/20 01:01:06;;;;;;;1.73;1.63;;;19.10;44.00;;;;;;4984603;28;20231;-77
2023/12/20 01:03:31;;;;;;;1.90;1.80;;;19.10;43.90;;;;;;4968385;28;20663;-77
2023/12/20 01:05:57;;;;;;;1.83;1.73;;;19.10;43.90;;;;;;4985291;28;20319;-77
2023/12/20 01:08:22;;;;;;;1.50;1.40;;;19.10;43.90;;;;;;4979811;28;20415;-77
2023/12/20 01:10:48;;;;;;;1.77;1.67;;;19.00;43.80;;;;;;4986056;28;20227;-77
2023/12/20 01:13:14;;;;;;;1.60;1.50;;;19.10;43.90;;;;;;4986556;28;20238;-77
2023/12/20 01:15:39;;;;;;;1.70;1.60;;;19.10;43.90;;;;;;4983959;28;20239;-77
2023/12/20 01:18:05;;;;;;;1.53;1.43;;;19.10;43.90;;;;;;4986375;28;20732;-74
2023/12/20 01:20:30;;;;;;;1.70;1.60;;;19.10;43.90;;;;;;4986663;28;20231;-75
2023/12/20 01:22:56;;;;;;;1.90;1.80;;;19.10;43.90;;;;;;4962559;28;20235;-73
2023/12/20 01:25:22;;;;;;;1.60;1.50;;;19.10;43.80;;;;;;4969409;28;20228;-73
2023/12/20 01:27:47;;;;;;;1.73;1.63;;;19.10;43.90;;;;;;4975045;28;20224;-77
2023/12/20 01:30:13;;;;;;;2.00;1.40;;;19.10;43.90;;;;;;4967191;28;20239;-76
2023/12/20 01:32:39;;;;;;;1.60;1.50;;;19.10;43.90;;;;;;4988527;28;20581;-77
2023/12/20 01:35:05;;;;;;;1.63;1.53;;;19.10;43.90;;;;;;4966577;28;20465;-77
2023/12/20 01:37:30;;;;;;;1.60;1.50;;;19.10;44.00;;;;;;4981681;28;20228;-77
2023/12/20 01:39:56;;;;;;;1.50;1.40;;;19.10;43.90;;;;;;4977066;28;20739;-77
2023/12/20 01:42:22;;;;;;;1.60;1.50;;;19.10;43.80;;;;;;4962349;28;20581;-77
2023/12/20 01:44:47;;;;;;;1.40;1.30;;;19.10;43.90;;;;;;4985760;28;20239;-77
2023/12/20 01:47:13;;;;;;;1.60;1.50;;;19.10;43.80;;;;;;4988290;28;20464;-77
2023/12/20 01:49:39;;;;;;;1.63;1.53;;;19.10;43.90;;;;;;4991627;28;20224;-77
2023/12/20 01:52:06;;;;;;;1.60;1.50;;;19.10;43.90;;;;;;4990045;28;20258;-77
2023/12/20 01:54:32;;;;;;;1.63;1.53;;;19.10;43.90;;;;;;4990565;28;20445;-77
2023/12/20 01:56:57;;;;;;;1.77;1.67;;;19.10;43.90;;;;;;4989974;28;20954;-77
2023/12/20 01:59:23;;;;;;;1.70;1.60;;;19.10;43.90;;;;;;4975685;28;20232;-77
2023/12/20 02:01:49;;;;;;;1.50;1.40;;;19.10;43.90;;;;;;4966118;28;20243;-77
2023/12/20 02:04:15;;;;;;;1.50;1.40;;;19.10;43.90;;;;;;4986000;28;20699;-77
2023/12/20 02:06:42;;;;;;;1.37;1.27;;;19.10;43.90;;;;;;4990432;28;20307;-77
2023/12/20 02:09:08;;;;;;;1.60;1.50;;;19.10;43.90;;;;;;4962676;28;20439;-77
2023/12/20 02:11:35;;;;;;;1.63;1.53;;;19.10;43.80;;;;;;4985540;28;20442;-77
2023/12/20 02:14:01;;;;;;;1.23;1.13;;;19.10;43.90;;;;;;4979596;28;20219;-77
2023/12/20 02:16:27;;;;;;;1.93;1.83;;;19.00;43.80;;;;;;4978062;28;20481;-77
2023/12/20 02:18:53;;;;;;;1.70;1.60;;;19.10;43.90;;;;;;4989381;28;20454;-77
2023/12/20 02:21:31;;;;;;;1.93;1.83;;;19.10;43.90;;;;;;4990562;28;20230;-77
2023/12/20 02:23:57;;;;;;;1.40;1.30;;;19.10;43.90;;;;;;4975347;28;20853;-77
2023/12/20 02:26:23;;;;;;;1.70;1.60;;;19.10;43.90;;;;;;4989197;28;20482;-77
2023/12/20 02:28:48;;;;;;;1.60;1.50;;;19.10;43.90;;;;;;4982422;28;20231;-76
2023/12/20 02:31:14;;;;;;;1.50;1.40;;;19.10;43.80;;;;;;4974989;28;20310;-76
2023/12/20 02:33:41;;;;;;;1.50;1.40;;;19.10;43.90;;;;;;4965560;28;20279;-76
2023/12/20 02:36:07;;;;;;;1.60;1.50;;;19.10;43.90;;;;;;4977754;28;20220;-76
2023/12/20 02:38:33;;;;;;;1.40;1.30;;;19.10;43.90;;;;;;4988841;28;20470;-77
2023/12/20 02:40:59;;;;;;;1.33;1.23;;;19.10;43.90;;;;;;4971316;28;20263;-77
2023/12/20 02:43:24;;;;;;;1.50;1.40;;;19.10;43.90;;;;;;4988416;28;20544;-77
2023/12/20 02:45:50;;;;;;;1.57;1.47;;;19.10;43.90;;;;;;4988516;28;20318;-77
2023/12/20 02:48:15;;;;;;;1.50;1.40;;;19.10;43.90;;;;;;4989680;28;20726;-81
2023/12/20 02:50:41;;;;;;;1.30;1.20;;;19.10;43.90;;;;;;4992037;28;20649;-78
2023/12/20 02:53:07;;;;;;;1.40;1.30;;;19.10;43.80;;;;;;4985186;28;20224;-82
2023/12/20 02:55:32;;;;;;;1.60;1.50;;;19.10;44.60;;;;;;4991540;28;21455;-82
2023/12/20 02:57:58;;;;;;;1.63;1.53;;;19.10;43.90;;;;;;4969857;28;20341;-82
2023/12/20 03:00:24;;;;;;;1.60;1.50;;;19.00;43.80;;;;;;4986758;28;20297;-81
2023/12/20 03:02:49;;;;;;;1.60;1.50;;;19.10;43.90;;;;;;4985596;28;20286;-80
2023/12/20 03:05:15;;;;;;;1.97;1.30;;;19.00;43.80;;;;;;4989062;28;20484;-78
2023/12/20 03:07:40;;;;;;;1.53;1.43;;;19.10;43.90;;;;;;4988719;28;20314;-82
2023/12/20 03:10:08;;;;;;;1.40;1.30;;;19.10;43.90;;;;;;4989996;28;20727;-81
2023/12/20 03:12:33;;;;;;;1.60;1.40;;;19.10;43.90;;;;;;4977195;28;20281;-77
2023/12/20 03:14:59;;;;;;;1.50;1.40;;;19.10;43.90;;;;;;4993673;28;20445;-80
2023/12/20 03:17:24;;;;;;;1.50;1.40;;;19.00;43.80;;;;;;4989507;28;20758;-80
2023/12/20 03:19:50;;;;;;;1.50;1.40;;;19.00;43.80;;;;;;4977184;28;20258;-80
2023/12/20 03:22:15;;;;;;;1.30;1.20;;;19.10;43.90;;;;;;4989918;28;20337;-81
2023/12/20 03:24:41;;;;;;;1.73;1.20;;;19.10;43.90;;;;;;4978881;28;20730;-78
2023/12/20 03:27:06;;;;;;;1.23;1.13;;;19.00;43.80;;;;;;4989278;28;20445;-82
2023/12/20 03:29:32;;;;;;;1.30;1.20;;;19.00;43.80;;;;;;4987624;28;20322;-81
2023/12/20 03:31:57;;;;;;;1.40;1.30;;;19.00;43.80;;;;;;4976718;28;20325;-83
2023/12/20 03:34:23;;;;;;;1.57;1.47;;;19.00;43.80;;;;;;4988330;28;20238;-79
2023/12/20 03:36:48;;;;;;;1.40;1.30;;;19.00;43.80;;;;;;4990876;28;20227;-82
2023/12/20 03:39:14;;;;;;;1.20;1.10;;;19.00;43.80;;;;;;4994055;28;20601;-79
2023/12/20 03:41:39;;;;;;;1.30;1.20;;;19.00;44.00;;;;;;4973187;28;20703;-83
2023/12/20 03:44:05;;;;;;;1.57;1.23;;;19.00;43.80;;;;;;4982059;28;20220;-80
2023/12/20 03:46:31;;;;;;;1.30;1.20;;;19.00;43.80;;;;;;4977307;28;20238;-82
2023/12/20 03:48:57;;;;;;;1.40;1.30;;;19.00;43.80;;;;;;4978469;28;20221;-76
2023/12/20 03:51:22;;;;;;;1.30;1.20;;;19.00;43.80;;;;;;4992877;28;20462;-76
2023/12/20 03:53:48;;;;;;;1.57;1.47;;;19.00;43.80;;;;;;4981797;28;20729;-77
2023/12/20 03:56:13;;;;;;;1.30;1.20;;;19.00;43.80;;;;;;4983255;28;20269;-77
2023/12/20 03:58:39;;;;;;;1.40;1.30;;;19.00;43.80;;;;;;4968249;28;20251;-76
2023/12/20 04:01:11;;;;;;;1.33;1.13;;;19.00;43.80;;;;;;4973109;28;20293;-76
2023/12/20 04:03:37;;;;;;;1.23;1.13;;;19.00;43.80;;;;;;4970816;28;20567;-76
2023/12/20 04:06:03;;;;;;;1.50;1.40;;;19.10;43.90;;;;;;4986557;28;20436;-76
2023/12/20 04:08:28;;;;;;;1.20;1.10;;;19.10;43.90;;;;;;4973830;28;20241;-79
2023/12/20 04:10:54;;;;;;;1.40;1.30;;;19.00;43.80;;;;;;4987277;28;20590;-79
2023/12/20 04:13:19;;;;;;;2.27;1.20;;;19.00;43.80;;;;;;4982217;28;20221;-82
2023/12/20 04:15:45;;;;;;;1.50;1.40;;;19.00;43.80;;;;;;4985106;28;20230;-83
2023/12/20 04:18:10;;;;;;;1.30;1.20;;;19.00;43.80;;;;;;4959016;28;20308;-80
2023/12/20 04:20:36;;;;;;;1.60;1.23;;;19.00;43.80;;;;;;4954949;28;20231;-78
2023/12/20 04:23:01;;;;;;;1.30;1.20;;;19.00;43.90;;;;;;4973998;28;20230;-82
2023/12/20 04:25:27;;;;;;;1.90;1.70;;;19.00;43.80;;;;;;4962848;28;20331;-83
2023/12/20 04:27:52;;;;;;;1.23;1.13;;;19.00;43.80;;;;;;4987986;28;20225;-80
2023/12/20 04:30:18;;;;;;;1.27;1.17;;;19.10;43.90;;;;;;4982267;28;20228;-83
2023/12/20 04:32:44;;;;;;;1.40;1.30;;;19.10;43.90;;;;;;4989773;28;20277;-77
2023/12/20 04:35:09;;;;;;;2.27;1.30;;;19.10;43.90;;;;;;4979442;28;20256;-81
2023/12/20 04:37:35;;;;;;;1.70;1.60;;;19.10;43.90;;;;;;4989042;28;20759;-82
2023/12/20 04:40:01;;;;;;;1.90;1.50;;;19.10;43.80;;;;;;4973886;28;20219;-81
2023/12/20 04:42:26;;;;;;;1.40;1.30;;;19.00;43.80;;;;;;4987492;28;20257;-83
2023/12/20 04:44:52;;;;;;;2.23;2.13;;;19.10;43.90;;;;;;4985886;28;20898;-83
2023/12/20 04:47:17;;;;;;;1.50;1.40;;;19.10;43.90;;;;;;4960079;28;20224;-82
2023/12/20 04:49:43;;;;;;;1.20;1.10;;;19.10;43.90;;;;;;4990026;28;20228;-83
2023/12/20 04:52:09;;;;;;;1.40;1.30;;;19.10;43.90;;;;;;4984936;28;20589;-83
2023/12/20 04:54:34;;;;;;;1.40;1.30;;;19.10;43.80;;;;;;4975584;28;20265;-82
2023/12/20 04:57:00;;;;;;;1.37;1.27;;;19.10;43.80;;;;;;4988296;28;20596;-77
2023/12/20 04:59:25;;;;;;;1.47;1.37;;;19.10;43.70;;;;;;4985774;28;20297;-82
2023/12/20 05:01:51;;;;;;;3.33;1.40;;;19.10;43.70;;;;;;4984333;28;20239;-84
2023/12/20 05:04:17;;;;;;;1.43;1.33;;;19.10;43.70;;;;;;4967024;28;20234;-80
2023/12/20 05:06:42;;;;;;;1.47;1.37;;;19.10;43.80;;;;;;4984007;28;20243;-80
2023/12/20 05:09:09;;;;;;;1.27;1.17;;;19.10;43.60;;;;;;4987251;28;20222;-80
2023/12/20 05:11:34;;;;;;;1.30;1.20;;;19.10;43.50;;;;;;4984846;28;20220;-78
2023/12/20 05:14:00;;;;;;;1.20;1.10;;;19.10;43.50;;;;;;4983080;28;20456;-80
2023/12/20 05:16:25;;;;;;;1.40;1.30;;;19.20;43.50;;;;;;4984301;28;20297;-77
2023/12/20 05:18:52;;;;;;;1.40;1.30;;;19.20;43.40;;;;;;4987351;28;20798;-74
2023/12/20 05:21:17;;;;;;;1.40;1.30;;;19.20;43.30;;;;;;4984442;28;20621;-75
2023/12/20 05:23:43;;;;;;;1.90;1.67;;;19.30;43.40;;;;;;4984412;28;20461;-73
2023/12/20 05:26:08;;;;;;;1.23;1.10;;;19.30;43.20;;;;;;4971351;28;20323;-75
2023/12/20 05:28:34;;;;;;;2.90;1.50;;;19.30;43.20;;;;;;4979892;28;20215;-73
2023/12/20 05:31:00;;;;;;;1.27;1.17;;;19.20;43.10;;;;;;4982479;28;20227;-73
2023/12/20 05:33:25;;;;;;;1.43;1.33;;;19.30;43.20;;;;;;4985683;28;20258;-76
2023/12/20 05:35:51;;;;;;;2.90;1.50;;;19.30;43.10;;;;;;4984188;28;20581;-75
2023/12/20 05:38:16;;;;;;;1.47;1.37;;;19.30;43.10;;;;;;4982733;28;20754;-73
2023/12/20 05:40:42;;;;;;;1.33;1.23;;;19.30;43.20;;;;;;4973359;28;20226;-73
2023/12/20 05:43:07;;;;;;;1.57;1.47;;;19.30;43.20;;;;;;4986752;28;20296;-74
2023/12/20 05:45:33;;;;;;;1.20;1.10;;;19.30;43.20;;;;;;4986356;28;20249;-76
2023/12/20 05:47:58;;;;;;;1.83;1.40;;;19.30;43.10;;;;;;4962855;28;20219;-76
2023/12/20 05:50:24;;;;;;;1.47;1.37;;;19.30;44.00;;;;;;4977311;28;20230;-75
2023/12/20 05:52:50;;;;;;;1.70;1.60;;;19.30;43.20;;;;;;4990240;28;20216;-73
2023/12/20 05:55:15;;;;;;;2.10;1.20;;;19.30;43.20;;;;;;4975058;28;20635;-74
2023/12/20 05:57:43;;;;;;;1.53;1.43;;;19.30;43.20;;;;;;4988876;28;20293;-75
2023/12/20 06:00:09;;;;;;;1.40;1.17;;;19.30;43.20;;;;;;4963775;28;20224;-73
2023/12/20 06:02:36;;;;;;;1.37;1.27;;;19.30;43.20;;;;;;4979768;28;21077;-76
2023/12/20 06:05:03;;;;;;;2.40;1.90;;;19.30;43.20;;;;;;4977716;28;20963;-77
2023/12/20 06:07:29;;;;;;;1.30;1.20;;;19.30;43.20;;;;;;4979672;28;20442;-76
2023/12/20 06:09:55;;;;;;;1.40;1.30;;;19.30;43.10;;;;;;4973657;28;20432;-73
2023/12/20 06:12:20;;;;;;;3.07;1.20;;;19.30;43.20;;;;;;4969392;28;20220;-76
2023/12/20 06:14:46;;;;;;;1.37;1.27;;;19.30;43.10;;;;;;4998294;28;20322;-77
2023/12/20 06:17:11;;;;;;;2.47;1.37;;;19.30;43.20;;;;;;4981675;28;20695;-75
2023/12/20 06:19:37;;;;;;;2.00;1.50;;;19.30;43.20;;;;;;4981319;28;20300;-75
2023/12/20 06:22:06;;;;;;;1.63;1.53;;;19.30;43.20;;;;;;4988233;28;20234;-74
2023/12/20 06:24:33;;;;;;;3.90;2.50;;;19.30;43.10;;;;;;4989051;28;20227;-74
2023/12/20 06:26:59;;;;;;;2.70;2.50;;;19.30;43.20;;;;;;4984791;28;20434;-76
2023/12/20 06:29:24;;;;;;;4.53;2.33;;;19.30;43.20;;;;;;4984415;28;20461;-75
2023/12/20 06:31:50;;;;;;;2.40;2.10;;;19.30;43.20;;;;;;4964545;28;20230;-74
2023/12/20 06:34:15;;;;;;;4.17;2.80;;;19.30;43.10;;;;;;4980485;28;20561;-76
2023/12/20 06:36:41;;;;;;;3.73;3.40;;;19.30;43.10;;;;;;4987673;28;20215;-74
2023/12/20 06:39:06;;;;;;;5.70;4.03;;;19.30;43.20;;;;;;4980419;28;20253;-75
2023/12/20 06:41:32;;;;;;;8.27;4.80;;;19.30;43.20;;;;;;4987657;28;20599;-75
2023/12/20 06:43:57;;;;;;;6.03;4.30;;;19.30;43.20;;;;;;4976402;28;20554;-75
2023/12/20 06:46:23;;;;;;;4.80;4.03;;;19.30;43.20;;;;;;4994588;28;20224;-75
2023/12/20 06:48:49;;;;;;;5.70;5.10;;;19.30;43.20;;;;;;4982087;28;20567;-75
2023/12/20 06:51:15;;;;;;;4.23;3.73;;;19.30;43.20;;;;;;4991072;28;20286;-76
2023/12/20 06:53:41;;;;;;;5.83;4.27;;;19.30;43.20;;;;;;4989452;28;20661;-75
2023/12/20 06:56:07;;;;;;;5.30;4.07;;;19.30;43.20;;;;;;4985100;28;20433;-75
2023/12/20 06:58:32;;;;;;;6.23;4.07;;;19.30;43.20;;;;;;4992573;28;20827;-75
2023/12/20 07:00:58;;;;;;;5.70;4.63;;;19.30;43.20;;;;;;4976431;28;20452;-75
2023/12/20 07:03:23;;;;;;;6.50;4.37;;;19.30;43.20;;;;;;4989277;28;20239;-75
2023/12/20 07:05:49;;;;;;;6.17;4.27;;;19.30;43.20;;;;;;4976745;28;20259;-75
2023/12/20 07:08:15;;;;;;;3.87;3.53;;;19.30;43.20;;;;;;4987909;28;20250;-75
2023/12/20 07:10:41;;;;;;;6.40;4.30;;;19.30;43.20;;;;;;4969178;28;20230;-75
2023/12/20 07:13:07;;;;;;;4.60;4.20;;;19.20;43.00;;;;;;4985772;28;20450;-75
2023/12/20 07:15:33;;;;;;;5.13;4.43;;;19.30;43.20;;;;;;4995973;28;20469;-75
2023/12/20 07:18:00;;;;;;;5.20;4.40;;;19.30;43.20;;;;;;4995176;28;20490;-75
2023/12/20 07:20:26;;;;;;;3.67;3.17;;;19.30;43.20;;;;;;4984484;28;20220;-75
2023/12/20 07:22:51;;;;;;;4.83;3.87;;;19.30;43.20;;;;;;4984830;28;20894;-76
2023/12/20 07:25:17;;;;;;;4.70;3.90;;;19.30;43.20;;;;;;4985878;28;20225;-75
2023/12/20 07:27:43;;;;;;;4.23;3.60;;;19.30;43.20;;;;;;4987847;28;20231;-76
2023/12/20 07:30:09;;;;;;;4.60;3.70;;;19.30;43.20;;;;;;4992892;28;20216;-75
2023/12/20 07:32:34;;;;;;;4.53;3.73;;;19.30;43.20;;;;;;4990363;28;20221;-75
2023/12/20 07:35:00;;;;;;;3.93;3.30;;;19.30;43.20;;;;;;4988765;28;20461;-75
2023/12/20 07:37:26;;;;;;;6.07;4.37;;;19.30;43.20;;;;;;4993862;28;20228;-77
2023/12/20 07:39:51;;;;;;;4.50;3.63;;;19.30;43.20;;;;;;4993110;28;20214;-77
2023/12/20 07:42:17;;;;;;;3.70;3.40;;;19.30;43.20;;;;;;4984174;28;20229;-76
2023/12/20 07:44:42;;;;;;;6.10;4.00;;;19.30;43.20;;;;;;4986539;28;20249;-77
2023/12/20 07:47:08;;;;;;;5.93;3.37;;;19.20;43.10;;;;;;4976027;28;20687;-74
2023/12/20 07:49:33;;;;;;;4.13;3.83;;;19.20;43.10;;;;;;4995790;28;20215;-74
2023/12/20 07:51:59;;;;;;;4.20;3.30;;;19.30;43.20;;;;;;4993448;28;20224;-74
2023/12/20 07:54:24;;;;;;;3.30;3.10;;;19.30;43.20;;;;;;4985308;28;20579;-74
2023/12/20 07:56:50;;;;;;;3.57;3.27;;;19.30;43.20;;;;;;4993112;28;20270;-75
2023/12/20 07:59:15;;;;;;;3.40;3.10;;;19.30;43.20;;;;;;4991859;28;20227;-72
2023/12/20 08:01:42;;;;;;;3.93;3.20;;;19.20;43.10;;;;;;4985917;28;20254;-73
2023/12/20 08:04:08;;;;;;;4.70;3.53;;;19.30;43.30;;;;;;4991123;28;20706;-74
2023/12/20 08:06:33;;;;;;;3.27;3.07;;;19.20;43.20;;;;;;4992855;28;20427;-73
2023/12/20 08:08:59;;;;;;;3.27;2.93;;;19.20;43.20;;;;;;4975265;28;20256;-72
2023/12/20 08:11:24;;;;;;;3.20;3.00;;;19.20;43.20;;;;;;4992855;28;20683;-73
2023/12/20 08:13:51;;;;;;;4.10;3.07;;;19.20;43.20;;;;;;4991031;28;20234;-73
2023/12/20 08:16:17;;;;;;;3.10;2.80;;;19.20;44.00;;;;;;4995774;28;20272;-73
2023/12/20 08:18:43;;;;;;;4.17;3.70;;;19.20;43.20;;;;;;4982206;28;21026;-74
2023/12/20 08:21:08;;;;;;;3.10;2.80;;;19.20;43.20;;;;;;4984134;28;20463;-75
2023/12/20 08:23:34;;;;;;;3.23;2.93;;;19.30;43.30;;;;;;4979840;28;20212;-73
2023/12/20 08:26:07;;;;;;;5.57;3.00;;;19.20;43.20;;;;;;4987279;28;20225;-73
2023/12/20 08:28:33;;;;;;;4.17;3.77;;;19.20;43.20;;;;;;4995911;28;20292;-73
2023/12/20 08:30:59;;;;;;;3.90;3.03;;;19.20;43.20;;;;;;4989167;28;20933;-73
2023/12/20 08:33:25;;;;;;;3.00;2.80;;;19.20;43.30;;;;;;4994985;28;20487;-73
2023/12/20 08:35:50;;;;;;;4.07;3.67;;;19.20;43.30;;;;;;4981459;28;20223;-72
2023/12/20 08:38:17;;;;;;;3.77;2.77;;;19.20;43.30;;;;;;4992163;28;20215;-72
2023/12/20 08:40:43;;;;;;;3.20;3.00;;;19.20;43.30;;;;;;4991137;28;20633;-74
2023/12/20 08:43:08;;;;;;;2.93;2.63;;;19.20;43.30;;;;;;4979347;28;20470;-73
2023/12/20 08:45:34;;;;;;;2.83;2.60;;;19.20;43.30;;;;;;4992932;28;20223;-73
2023/12/20 08:48:00;;;;;;;2.70;2.50;;;19.20;43.30;;;;;;4978528;28;20719;-74
2023/12/20 08:50:25;;;;;;;2.83;2.63;;;19.20;43.40;;;;;;4975228;28;20227;-74
2023/12/20 08:52:51;;;;;;;2.77;2.50;;;19.20;43.50;;;;;;4994935;28;20725;-74
2023/12/20 08:55:18;;;;;;;3.60;2.50;;;19.20;43.40;;;;;;4987272;28;20250;-74
2023/12/20 08:57:43;;;;;;;3.00;2.80;;;19.20;43.50;;;;;;4990141;28;20306;-75
2023/12/20 09:00:10;;;;;;;5.67;2.57;;;19.20;43.50;;;;;;4991936;28;20462;-73
2023/12/20 09:02:36;;;;;;;3.20;2.30;;;19.20;43.50;;;;;;4979518;28;20262;-75
2023/12/20 09:05:02;;;;;;;2.60;2.40;;;19.20;43.50;;;;;;4978918;28;20433;-75
2023/12/20 09:07:30;;;;;;;2.67;2.47;;;19.20;43.50;;;;;;4981409;28;21004;-75
2023/12/20 09:09:56;;;;;;;2.53;2.10;;;19.20;43.50;;;;;;4970468;28;20528;-74
2023/12/20 09:12:22;;;;;;;3.03;2.83;;;19.20;43.50;;;;;;4984308;28;20826;-74
2023/12/20 09:14:48;;;;;;;2.83;2.30;;;19.20;43.50;;;;;;4990791;28;20289;-74
2023/12/20 09:17:14;;;;;;;3.40;2.47;;;19.20;43.50;;;;;;4989263;28;20283;-73
2023/12/20 09:19:39;;;;;;;2.57;2.37;;;19.20;43.50;;;;;;4989361;28;20466;-73
2023/12/20 09:22:05;;;;;;;2.87;2.67;;;19.20;43.50;;;;;;4983492;28;20236;-75
2023/12/20 09:24:31;;;;;;;4.47;2.20;;;19.20;43.60;;;;;;4973191;28;20227;-75
2023/12/20 09:26:57;;;;;;;3.03;2.70;;;19.20;43.50;;;;;;4986057;28;21389;-74
2023/12/20 09:29:24;;;;;;;3.60;2.77;;;19.20;43.50;;;;;;4982042;28;20702;-74
2023/12/20 09:31:50;;;;;;;3.17;2.23;;;19.20;43.60;;;;;;4989482;28;21917;-75
2023/12/20 09:34:17;;;;;;;2.30;2.10;;;19.20;43.50;;;;;;4989195;28;20465;-74
2023/12/20 09:36:46;;;;;;;3.07;2.77;;;19.20;43.50;;;;;;4980682;28;20694;-74
2023/12/20 09:39:19;;;;;;;2.90;2.20;;;19.20;43.50;;;;;;4982519;28;20526;-74
2023/12/20 09:41:46;;;;;;;2.73;1.97;;;19.20;43.50;;;;;;4988831;28;20871;-75
2023/12/20 09:44:19;;;;;;;2.30;2.10;;;19.20;43.50;;;;;;4983501;28;20430;-74
2023/12/20 09:46:48;;;;;;;2.60;2.30;;;19.20;44.20;;;;;;4978574;28;20465;-75
2023/12/20 09:49:15;;;;;;;2.27;2.03;;;19.20;43.50;;;;;;4981609;28;20435;-74
2023/12/20 09:51:42;;;;;;;2.20;2.00;;;19.20;43.50;;;;;;4969704;28;20448;-75
2023/12/20 09:54:07;;;;;;;3.40;2.00;;;19.20;43.50;;;;;;4989538;28;20455;-74
2023/12/20 09:56:34;;;;;;;2.63;2.27;;;19.20;43.50;;;;;;4993846;28;20446;-74
2023/12/20 09:59:00;;;;;;;2.83;2.23;;;19.20;43.50;;;;;;4983924;28;20220;-73
2023/12/20 10:01:26;;;;;;;2.43;2.03;;;19.20;43.50;;;;;;4990199;28;20547;-74
2023/12/20 10:03:54;;;;;;;3.40;2.10;;;19.20;43.50;;;;;;4978345;28;20225;-75
2023/12/20 10:06:22;;;;;;;1.80;1.70;;;19.20;43.50;;;;;;4981947;28;21018;-74
2023/12/20 10:08:47;;;;;;;2.30;2.10;;;19.10;43.40;;;;;;4989363;28;21038;-73
2023/12/20 10:11:13;;;;;;;2.47;2.00;;;19.10;43.30;;;;;;4990353;28;20522;-74
2023/12/20 10:13:43;;;;;;;2.40;1.90;;;19.10;43.40;;;;;;4990565;28;20843;-73
2023/12/20 10:16:08;;;;;;;4.33;2.47;;;19.10;43.40;;;;;;4998094;28;21360;-73
2023/12/20 10:18:34;;;;;;;2.20;2.10;;;19.10;43.30;;;;;;4974922;28;20454;-74
2023/12/20 10:21:00;;;;;;;2.03;1.80;;;19.10;43.30;;;;;;4984743;28;20229;-73
2023/12/20 10:23:26;;;;;;;1.90;1.80;;;19.10;43.30;;;;;;4978279;28;21072;-76
2023/12/20 10:25:57;;;;;;;2.63;2.43;;;19.10;43.30;;;;;;4982616;28;20445;-74
2023/12/20 10:28:26;;;;;;;2.50;2.30;;;19.10;43.30;;;;;;4982384;28;20229;-74
2023/12/20 10:30:52;;;;;;;1.90;1.80;;;19.10;43.30;;;;;;4992827;28;20456;-74
2023/12/20 10:33:32;;;;;;;2.30;2.10;;;19.10;43.30;;;;;;4975837;28;20508;-74
2023/12/20 10:35:58;;;;;;;1.97;1.87;;;19.10;43.30;;;;;;4991473;28;20234;-74
2023/12/20 10:38:23;;;;;;;4.00;2.10;;;19.10;43.20;;;;;;4992432;28;20471;-73
2023/12/20 10:40:54;;;;;;;2.20;2.00;;;19.10;43.20;;;;;;4982183;28;20224;-73
2023/12/20 10:43:20;;;;;;;1.70;1.60;;;19.10;43.20;;;;;;4990686;28;20710;-73
2023/12/20 10:45:46;;;;;;;2.03;1.93;;;19.10;43.20;;;;;;4990309;28;20423;-72
2023/12/20 10:48:12;;;;;;;2.30;2.00;;;19.10;43.20;;;;;;4987672;28;20251;-72
2023/12/20 10:50:41;;;;;;;1.67;1.57;;;19.10;43.20;;;;;;4986201;28;20220;-72
2023/12/20 10:53:07;;;;;;;2.03;1.90;;;19.10;43.20;;;;;;4994285;28;20222;-73
2023/12/20 10:55:33;;;;;;;2.20;1.70;;;19.10;43.20;;;;;;4987789;28;20435;-72
2023/12/20 10:58:01;;;;;;;1.77;1.67;;;19.10;43.20;;;;;;4986033;28;20248;-72
2023/12/20 11:00:30;;;;;;;2.07;1.87;;;19.10;43.10;;;;;;4984610;28;20449;-73
2023/12/20 11:03:00;;;;;;;2.13;1.93;;;19.10;43.10;;;;;;4982138;28;20451;-73
2023/12/20 11:05:30;;;;;;;1.70;1.60;;;19.10;43.20;;;;;;4992906;28;20516;-73
2023/12/20 11:08:08;;;;;;;2.20;2.00;;;19.10;43.10;;;;;;4993311;28;20524;-76
2023/12/20 11:10:42;;;;;;;1.60;1.50;;;19.10;43.10;;;;;;4986782;28;20579;-75
2023/12/20 11:13:20;;;;;;;1.73;1.63;;;19.10;43.10;;;;;;4996916;28;20460;-76
2023/12/20 11:15:46;;;;;;;3.50;1.80;;;19.10;43.10;;;;;;4959932;28;20480;-75
2023/12/20 11:18:11;;;;;;;2.47;1.60;;;19.10;43.20;;;;;;4982362;28;20434;-77
2023/12/20 11:20:38;;;;;;;2.03;1.60;;;19.10;43.20;;;;;;4978952;28;20423;-76
2023/12/20 11:23:06;;;;;;;1.60;1.50;;;19.10;43.10;;;;;;4990292;28;21232;-76
2023/12/20 11:25:47;;;;;;;2.17;1.97;;;19.10;43.20;;;;;;4988798;28;20960;-77
2023/12/20 11:28:13;;;;;;;1.50;1.40;;;19.10;43.10;;;;;;4968941;28;20450;-76
2023/12/20 11:30:53;;;;;;;1.77;1.60;;;19.10;43.20;;;;;;4990427;28;20796;-76
2023/12/20 11:33:23;;;;;;;1.93;1.60;;;19.10;43.20;;;;;;4976694;28;20227;-76
2023/12/20 11:35:49;;;;;;;3.03;2.40;;;19.10;43.10;;;;;;4984866;28;20465;-77
2023/12/20 11:38:15;;;;;;;2.30;2.03;;;19.10;43.10;;;;;;4986603;28;20464;-77
2023/12/20 11:40:42;;;;;;;1.73;1.63;;;19.10;43.00;;;;;;4989107;28;20453;-76
2023/12/20 11:43:08;;;;;;;1.87;1.77;;;19.10;43.00;;;;;;4989956;28;20694;-77
2023/12/20 11:45:34;;;;;;;1.70;1.60;;;19.10;42.90;;;;;;4988146;28;20467;-76
2023/12/20 11:48:02;;;;;;;4.13;1.87;;;19.10;43.00;;;;;;4993741;28;20321;-76
2023/12/20 11:50:29;;;;;;;1.80;1.70;;;19.10;42.90;;;;;;4978547;28;20419;-77
2023/12/20 11:52:55;;;;;;;1.70;1.60;;;19.10;43.00;;;;;;4981578;28;20432;-76
2023/12/20 11:55:23;;;;;;;1.60;1.50;;;19.10;43.00;;;;;;4972440;28;20436;-77
2023/12/20 11:57:50;;;;;;;1.80;1.70;;;19.10;43.00;;;;;;4981484;28;20451;-77
2023/12/20 12:00:16;;;;;;;1.57;1.47;;;19.10;43.00;;;;;;4975416;28;20462;-77
2023/12/20 12:02:42;;;;;;;1.67;1.57;;;19.10;43.00;;;;;;4987256;28;20598;-77
2023/12/20 12:05:07;;;;;;;1.50;1.40;;;19.10;43.00;;;;;;4992519;28;20556;-76
2023/12/20 12:07:34;;;;;;;1.60;1.50;;;19.10;43.00;;;;;;4988659;28;20234;-77
2023/12/20 12:10:00;;;;;;;1.60;1.50;;;19.10;43.00;;;;;;4973100;28;20236;-77
2023/12/20 12:12:27;;;;;;;1.57;1.47;;;19.10;43.00;;;;;;4992078;28;20564;-77
2023/12/20 12:14:53;;;;;;;1.87;1.77;;;19.10;43.00;;;;;;4983610;28;20241;-75
2023/12/20 12:17:18;;;;;;;1.77;1.50;;;19.10;43.00;;;;;;4991195;28;20777;-73
2023/12/20 12:19:44;;;;;;;1.40;1.30;;;19.10;42.90;;;;;;4990039;28;20520;-72
2023/12/20 12:22:16;;;;;;;1.60;1.50;;;19.10;42.80;;;;;;4976563;28;20907;-74
2023/12/20 12:24:46;;;;;;;1.53;1.43;;;19.10;42.90;;;;;;4992552;28;20223;-73
2023/12/20 12:27:13;;;;;;;2.17;1.50;;;19.10;43.00;;;;;;4973613;28;20467;-75
2023/12/20 12:29:38;;;;;;;1.20;1.10;;;19.10;43.00;;;;;;4992120;28;20459;-77
2023/12/20 12:32:08;;;;;;;1.83;1.73;;;19.10;42.90;;;;;;4990029;28;20432;-75
2023/12/20 12:34:36;;;;;;;1.67;1.40;;;19.10;42.90;;;;;;4975979;28;20220;-78
2023/12/20 12:37:04;;;;;;;1.53;1.20;;;19.10;42.90;;;;;;4990888;28;20457;-76
2023/12/20 12:39:30;;;;;;;1.50;1.40;;;19.10;42.80;;;;;;4998476;28;20464;-77
2023/12/20 12:41:56;;;;;;;1.37;1.23;;;19.10;42.80;;;;;;4996347;28;20439;-77